Time;durP1;ratioP1;P1;durP2;ratioP2;P2;SDS_P1;SDS_P2;PMS_P1;PMS_P2;Temp;Humidity;BMP_temperature;BMP_pressure;BME280_temperature;BME280_humidity;BME280_pressure;Samples;Min_cycle;Max_cycle;Signal;HPM_P1;HPM_P2
2023/06/07 00:01:52;;;;;;;1.00;0.57;;;;;;;21.98;41.88;101286.38;5191054;28;20037;-84
2023/06/07 00:04:45;;;;;;;0.57;0.57;;;;;;;21.99;41.72;101283.59;5193339;28;20036;-84
2023/06/07 00:07:36;;;;;;;1.15;0.90;;;;;;;21.97;42.09;101284.66;5203047;28;20652;-84
2023/06/07 00:10:26;;;;;;;1.00;0.82;;;;;;;21.83;42.29;101282.88;5220742;28;20038;-84
2023/06/07 00:13:17;;;;;;;0.88;0.88;;;;;;;21.86;42.58;101277.31;5189567;28;20025;-85
2023/06/07 00:16:08;;;;;;;0.73;0.73;;;;;;;21.78;42.91;101279.66;5187768;28;20516;-83
2023/06/07 00:19:01;;;;;;;1.00;0.50;;;;;;;21.77;43.05;101283.31;5217600;28;20036;-84
2023/06/07 00:21:51;;;;;;;0.40;0.40;;;;;;;21.69;42.90;101291.81;5188560;28;20033;-83
2023/06/07 00:24:42;;;;;;;0.55;0.50;;;;;;;21.73;42.89;101289.78;5202166;28;20098;-83
2023/06/07 00:27:33;;;;;;;0.73;0.73;;;;;;;21.76;43.38;101297.59;5208189;28;20488;-84
2023/06/07 00:30:24;;;;;;;5.18;1.33;;;;;;;21.74;43.08;101294.16;5204784;28;20037;-83
2023/06/07 00:33:14;;;;;;;0.63;0.63;;;;;;;21.57;44.61;101292.56;5205963;28;20258;-83
2023/06/07 00:36:05;;;;;;;1.77;0.77;;;;;;;21.45;44.82;101284.41;5196866;28;20665;-84
2023/06/07 00:38:56;;;;;;;8.35;1.00;;;;;;;21.47;44.40;101286.94;5206133;28;20105;-84
2023/06/07 00:41:47;;;;;;;2.72;1.70;;;;;;;21.54;43.70;101283.81;5186278;28;20034;-85
2023/06/07 00:44:38;;;;;;;9.48;0.60;;;;;;;21.58;43.53;101283.63;5215753;28;20112;-84
2023/06/07 00:47:29;;;;;;;0.80;0.80;;;;;;;21.60;44.41;101287.06;5206780;28;20030;-85
2023/06/07 00:50:20;;;;;;;0.20;0.20;;;;;;;21.53;43.96;101291.88;5207977;28;20041;-85
2023/06/07 00:53:11;;;;;;;0.45;0.45;;;;;;;21.51;43.81;101291.16;5190565;28;20029;-83
2023/06/07 00:56:05;;;;;;;0.70;0.70;;;;;;;21.48;43.86;101288.66;5216943;28;20033;-86
2023/06/07 00:58:56;;;;;;;;;;;;;;;21.32;44.35;101287.00;5209397;28;20031;-83
2023/06/07 01:01:55;;;;;;;2.90;1.92;;;;;;;21.42;44.53;101289.06;5210297;28;19913;-84
2023/06/07 01:04:49;;;;;;;0.93;0.75;;;;;;;21.29;45.94;101284.50;5215913;28;20132;-84
2023/06/07 01:07:51;;;;;;;1.33;0.88;;;;;;;21.30;44.96;101286.22;5217294;28;20024;-84
2023/06/07 01:10:42;;;;;;;2.25;0.98;;;;;;;21.20;46.34;101287.75;5200161;28;20068;-84
2023/06/07 01:13:34;;;;;;;0.55;0.55;;;;;;;21.20;45.83;101285.97;5217315;28;20035;-84
2023/06/07 01:16:26;;;;;;;1.05;0.80;;;;;;;21.20;46.30;101285.97;5206194;28;20037;-83
2023/06/07 01:19:23;;;;;;;0.60;0.60;;;;;;;21.13;46.08;101278.41;5188279;28;20021;-84
2023/06/07 01:22:14;;;;;;;0.30;0.30;;;;;;;21.10;45.96;101286.63;5200750;28;20620;-84
2023/06/07 01:25:05;;;;;;;1.33;1.23;;;;;;;21.03;45.63;101284.31;5195743;28;20087;-83
2023/06/07 01:27:57;;;;;;;1.13;1.13;;;;;;;20.83;47.63;101288.22;5197399;28;20036;-84
2023/06/07 01:30:48;;;;;;;0.40;0.40;;;;;;;20.94;45.81;101287.59;5215029;28;20029;-84
2023/06/07 01:33:41;;;;;;;0.65;0.65;;;;;;;21.02;46.07;101284.44;5205578;28;20025;-84
2023/06/07 01:36:33;;;;;;;1.63;1.23;;;;;;;20.99;46.26;101281.97;5188355;28;20392;-85
2023/06/07 01:39:25;;;;;;;1.48;1.38;;;;;;;20.87;48.12;101278.22;5186510;28;20534;-83
2023/06/07 01:42:17;;;;;;;0.73;0.73;;;;;;;20.82;46.60;101281.22;5184899;28;20057;-85
2023/06/07 01:45:09;;;;;;;0.50;0.50;;;;;;;20.82;46.40;101278.53;5186774;28;20061;-83
2023/06/07 01:48:00;;;;;;;0.30;0.30;;;;;;;20.82;45.75;101275.88;5192805;28;20025;-84
2023/06/07 01:50:51;;;;;;;0.98;0.98;;;;;;;20.66;46.65;101275.91;5188599;28;20026;-84
2023/06/07 01:53:43;;;;;;;0.60;0.60;;;;;;;20.77;47.21;101279.78;5214110;28;20037;-85
2023/06/07 01:56:48;;;;;;;2.38;0.75;;;;;;;20.55;47.80;101270.38;5199899;28;20033;-84
2023/06/07 02:00:06;;;;;;;0.63;0.63;;;;;;;20.48;48.03;101274.34;5204267;28;20117;-84
2023/06/07 02:03:16;;;;;;;1.30;1.20;;;;;;;20.54;46.98;101272.19;5211160;28;20036;-84
2023/06/07 02:06:11;;;;;;;0.40;0.40;;;;;;;20.41;50.14;101277.41;5187042;28;20025;-85
2023/06/07 02:09:07;;;;;;;1.02;0.93;;;;;;;20.41;47.27;101274.72;5187039;28;20029;-84
2023/06/07 02:12:01;;;;;;;0.70;0.70;;;;;;;20.45;47.80;101270.91;5187004;28;20469;-83
2023/06/07 02:14:52;;;;;;;1.10;1.10;;;;;;;20.26;49.93;101273.00;5181630;28;20110;-83
2023/06/07 02:17:57;;;;;;;1.67;1.23;;;;;;;20.29;48.35;101270.13;5200963;28;20025;-83
2023/06/07 02:20:48;;;;;;;0.90;0.90;;;;;;;20.36;47.62;101268.84;5186370;28;20119;-84
2023/06/07 02:23:39;;;;;;;0.88;0.73;;;;;;;20.36;47.97;101268.84;5197870;28;20025;-84
2023/06/07 02:26:30;;;;;;;1.13;1.02;;;;;;;20.32;49.21;101271.78;5194369;28;20091;-84
2023/06/07 02:29:21;;;;;;;0.70;0.65;;;;;;;20.30;49.06;101271.84;5182188;28;20029;-83
2023/06/07 02:32:11;;;;;;;1.08;1.08;;;;;;;20.22;49.60;101271.44;5200210;28;20031;-84
2023/06/07 02:35:02;;;;;;;0.68;0.68;;;;;;;20.19;48.29;101261.81;5198643;28;20034;-83
2023/06/07 02:37:53;;;;;;;1.02;1.02;;;;;;;20.17;50.40;101265.53;5210495;28;20029;-84
2023/06/07 02:40:44;;;;;;;1.88;0.77;;;;;;;20.31;49.37;101254.06;5213356;28;20033;-85
2023/06/07 02:43:36;;;;;;;0.93;0.85;;;;;;;20.10;49.19;101257.03;5206139;28;20037;-84
2023/06/07 02:46:27;;;;;;;3.20;1.95;;;;;;;20.07;49.07;101260.75;5225067;28;20040;-83
2023/06/07 02:49:18;;;;;;;4.72;1.10;;;;;;;20.16;48.78;101258.50;5210831;28;20025;-83
2023/06/07 02:52:10;;;;;;;1.27;1.17;;;;;;;20.09;48.64;101255.31;5204782;28;20523;-84
2023/06/07 02:55:01;;;;;;;0.50;0.50;;;;;;;20.02;49.53;101257.50;5202049;28;20043;-85
2023/06/07 02:57:52;;;;;;;2.10;1.15;;;;;;;20.01;49.39;101263.78;5200949;28;20029;-86
2023/06/07 03:00:49;;;;;;;0.63;0.63;;;;;;;19.98;49.50;101258.63;5201560;28;20030;-84
2023/06/07 03:03:42;;;;;;;0.60;0.60;;;;;;;19.99;48.97;101259.50;5200957;28;20159;-85
2023/06/07 03:06:33;;;;;;;0.73;0.73;;;;;;;20.02;49.30;101265.50;5206877;28;20378;-84
2023/06/07 03:09:24;;;;;;;1.58;1.17;;;;;;;20.03;49.59;101269.88;5196495;28;21035;-84
2023/06/07 03:12:18;;;;;;;4.75;2.08;;;;;;;20.02;49.61;101275.28;5198561;28;20048;-84
2023/06/07 03:15:09;;;;;;;1.23;1.00;;;;;;;19.96;50.00;101271.16;5191803;28;20557;-84
2023/06/07 03:18:00;;;;;;;0.90;0.90;;;;;;;20.01;50.11;101268.22;5205831;28;20048;-85
2023/06/07 03:20:51;;;;;;;3.88;1.83;;;;;;;19.82;51.10;101272.78;5208766;28;20188;-84
2023/06/07 03:23:42;;;;;;;1.42;1.33;;;;;;;19.91;49.63;101270.56;5192877;28;20033;-84
2023/06/07 03:26:33;;;;;;;0.57;0.57;;;;;;;19.92;49.47;101261.66;5205928;28;20066;-84
2023/06/07 03:29:24;;;;;;;9.95;3.40;;;;;;;19.84;49.68;101262.03;5207889;28;20056;-84
2023/06/07 03:32:15;;;;;;;0.80;0.80;;;;;;;19.85;50.42;101265.59;5187127;28;20041;-85
2023/06/07 03:35:09;;;;;;;1.02;0.95;;;;;;;19.85;49.89;101265.59;5209243;28;20503;-85
2023/06/07 03:38:00;;;;;;;2.50;1.10;;;;;;;19.80;50.38;101268.50;5189980;28;20074;-84
2023/06/07 03:40:50;;;;;;;1.05;0.95;;;;;;;19.90;49.92;101271.50;5191122;28;20033;-84
2023/06/07 03:43:41;;;;;;;1.42;1.33;;;;;;;19.86;49.91;101275.31;5209729;28;20161;-84
2023/06/07 03:46:32;;;;;;;6.53;1.27;;;;;;;19.82;50.13;101269.28;5212712;28;20067;-84
2023/06/07 03:49:23;;;;;;;2.97;2.40;;;;;;;19.70;51.19;101275.28;5219455;28;20084;-85
2023/06/07 03:52:13;;;;;;;1.30;0.90;;;;;;;19.66;53.05;101269.28;5207977;28;20061;-83
2023/06/07 03:55:04;;;;;;;0.50;0.50;;;;;;;19.77;51.75;101268.66;5217934;28;20061;-84
2023/06/07 03:57:56;;;;;;;1.23;1.13;;;;;;;19.69;51.27;101269.13;5226608;28;20059;-83
2023/06/07 04:00:49;;;;;;;1.58;1.10;;;;;;;19.69;51.67;101271.78;5235579;28;20033;-84
2023/06/07 04:03:45;;;;;;;0.93;0.93;;;;;;;19.81;50.93;101281.72;5233895;28;20037;-82
2023/06/07 04:06:36;;;;;;;1.10;1.02;;;;;;;19.72;51.18;101276.91;5219620;28;20769;-84
2023/06/07 04:09:27;;;;;;;6.63;1.77;;;;;;;19.54;52.22;101281.50;5187737;28;20095;-84
2023/06/07 04:12:18;;;;;;;0.47;0.47;;;;;;;19.49;52.30;101273.75;5190995;28;20072;-84
2023/06/07 04:15:09;;;;;;;1.02;1.00;;;;;;;19.55;51.52;101275.22;5192871;28;20040;-83
2023/06/07 04:18:00;;;;;;;3.05;2.85;;;;;;;19.42;55.16;101283.03;5201720;28;20040;-83
2023/06/07 04:20:51;;;;;;;1.65;0.85;;;;;;;19.54;52.42;101283.31;5205832;28;20179;-83
2023/06/07 04:23:42;;;;;;;0.98;0.98;;;;;;;19.57;51.26;101280.44;5187190;28;20089;-85
2023/06/07 04:26:33;;;;;;;2.88;2.25;;;;;;;19.62;52.06;101286.41;5197619;28;20115;-84
2023/06/07 04:29:26;;;;;;;5.07;1.95;;;;;;;19.57;52.03;101276.00;5218086;28;20029;-85
2023/06/07 04:32:18;;;;;;;0.73;0.73;;;;;;;19.56;51.77;101284.06;5200951;28;20032;-84
2023/06/07 04:35:09;;;;;;;1.73;1.08;;;;;;;19.53;52.87;101278.91;5204059;28;20040;-84
2023/06/07 04:38:01;;;;;;;0.60;0.60;;;;;;;19.60;52.84;101288.28;5201787;28;20066;-85
2023/06/07 04:40:56;;;;;;;0.80;0.80;;;;;;;19.48;52.65;101281.84;5189695;28;20057;-84
2023/06/07 04:43:48;;;;;;;1.60;1.20;;;;;;;19.45;52.42;101280.22;5208957;28;20080;-84
2023/06/07 04:46:40;;;;;;;2.83;1.33;;;;;;;19.33;53.50;101280.88;5187477;28;20034;-84
2023/06/07 04:49:33;;;;;;;1.88;1.35;;;;;;;19.32;54.39;101284.47;5218293;28;20036;-85
2023/06/07 04:52:24;;;;;;;0.50;0.50;;;;;;;19.27;54.04;101283.88;5186515;28;20037;-85
2023/06/07 04:55:15;;;;;;;0.50;0.50;;;;;;;19.28;54.93;101280.28;5200918;28;20604;-84
2023/06/07 04:58:06;;;;;;;0.70;0.70;;;;;;;19.45;54.08;101284.66;5191389;28;20156;-85
2023/06/07 05:00:57;;;;;;;0.95;0.95;;;;;;;19.25;53.62;101286.63;5214657;28;20597;-85
2023/06/07 05:03:49;;;;;;;1.55;0.95;;;;;;;19.39;53.01;101290.31;5205316;28;20041;-84
2023/06/07 05:06:40;;;;;;;1.08;1.05;;;;;;;19.22;53.91;101284.13;5206131;28;20112;-84
2023/06/07 05:09:31;;;;;;;7.15;1.17;;;;;;;19.23;53.19;101285.84;5186954;28;20044;-85
2023/06/07 05:12:22;;;;;;;0.77;0.77;;;;;;;19.27;54.46;101290.03;5189003;28;20029;-84
2023/06/07 05:15:13;;;;;;;1.63;1.52;;;;;;;19.31;53.10;101291.63;5206828;28;20032;-86
2023/06/07 05:18:05;;;;;;;3.45;1.77;;;;;;;19.14;55.51;101295.16;5203291;28;20717;-85
2023/06/07 05:20:56;;;;;;;2.17;1.13;;;;;;;19.16;55.78;101293.31;5187298;28;20246;-84
2023/06/07 05:23:47;;;;;;;2.75;1.52;;;;;;;19.21;54.92;101294.88;5187996;28;20025;-84
2023/06/07 05:26:38;;;;;;;2.08;1.10;;;;;;;19.23;54.27;101303.59;5184033;28;20108;-84
2023/06/07 05:29:28;;;;;;;1.05;1.00;;;;;;;19.08;54.39;101303.50;5199475;28;20041;-85
2023/06/07 05:32:19;;;;;;;0.85;0.77;;;;;;;19.13;55.90;101293.44;5184740;28;20021;-85
2023/06/07 05:35:11;;;;;;;0.63;0.60;;;;;;;19.09;55.19;101305.22;5207639;28;20037;-83
2023/06/07 05:38:02;;;;;;;0.55;0.55;;;;;;;19.02;54.68;101302.00;5189231;28;20508;-86
2023/06/07 05:40:55;;;;;;;0.77;0.77;;;;;;;19.06;54.66;101300.03;5183244;28;20037;-84
2023/06/07 05:43:46;;;;;;;0.60;0.60;;;;;;;19.22;54.47;101301.88;5205276;28;20142;-85
2023/06/07 05:46:37;;;;;;;0.60;0.60;;;;;;;19.21;54.02;101310.81;5203916;28;20041;-85
2023/06/07 05:49:27;;;;;;;0.70;0.70;;;;;;;19.17;54.33;101308.31;5191742;28;20110;-84
2023/06/07 05:52:18;;;;;;;0.73;0.70;;;;;;;19.17;54.85;101315.44;5201262;28;20040;-85
2023/06/07 05:55:10;;;;;;;0.98;0.85;;;;;;;19.17;54.44;101315.44;5214855;28;20021;-85
2023/06/07 05:58:01;;;;;;;0.52;0.52;;;;;;;19.22;53.83;101321.38;5187947;28;20024;-85
2023/06/07 06:00:53;;;;;;;1.15;0.52;;;;;;;19.24;54.36;101323.94;5207680;28;20025;-84
2023/06/07 06:03:43;;;;;;;1.63;0.98;;;;;;;19.33;53.90;101315.47;5217511;28;20025;-85
2023/06/07 06:06:36;;;;;;;0.40;0.40;;;;;;;19.19;54.86;101317.09;5202212;28;20068;-85
2023/06/07 06:09:27;;;;;;;1.20;1.10;;;;;;;19.35;55.39;101319.75;5207283;28;20049;-85
2023/06/07 06:12:17;;;;;;;0.52;0.52;;;;;;;19.50;54.49;101317.22;5205123;28;20489;-85
2023/06/07 06:15:09;;;;;;;0.93;0.90;;;;;;;19.41;53.80;101323.88;5196393;28;20041;-84
2023/06/07 06:17:59;;;;;;;0.70;0.70;;;;;;;19.41;54.14;101315.91;5202263;28;20030;-85
2023/06/07 06:20:50;;;;;;;0.68;0.68;;;;;;;19.39;54.62;101315.13;5223469;28;20036;-83
2023/06/07 06:23:41;;;;;;;0.40;0.40;;;;;;;19.50;54.21;101318.06;5220896;28;20055;-84
2023/06/07 06:26:32;;;;;;;0.95;0.95;;;;;;;19.38;55.22;101313.41;5219664;28;20033;-84
2023/06/07 06:29:23;;;;;;;0.55;0.55;;;;;;;19.29;55.66;101325.41;5211999;28;20037;-86
2023/06/07 06:32:13;;;;;;;0.68;0.68;;;;;;;19.44;55.84;101326.38;5201046;28;20033;-84
2023/06/07 06:35:05;;;;;;;1.48;1.38;;;;;;;18.95;59.04;101337.00;5204107;28;20033;-84
2023/06/07 06:37:55;;;;;;;0.55;0.55;;;;;;;19.41;54.87;101339.00;5188343;28;20009;-85
2023/06/07 06:40:46;;;;;;;0.50;0.50;;;;;;;19.46;55.59;101336.94;5191595;28;20041;-85
2023/06/07 06:43:37;;;;;;;0.57;0.45;;;;;;;19.52;54.61;101341.06;5194472;28;20037;-86
2023/06/07 06:46:28;;;;;;;1.48;1.38;;;;;;;19.37;58.21;101350.75;5212728;28;20051;-84
2023/06/07 06:49:19;;;;;;;1.10;1.00;;;;;;;19.43;56.96;101353.94;5200055;28;20038;-85
2023/06/07 06:52:10;;;;;;;1.08;1.02;;;;;;;19.58;55.36;101352.25;5193892;28;20024;-83
2023/06/07 06:55:00;;;;;;;0.73;0.57;;;;;;;19.62;56.38;101347.63;5223448;28;20079;-84
2023/06/07 06:57:51;;;;;;;2.65;1.60;;;;;;;19.74;54.85;101343.41;5218363;28;20056;-85
2023/06/07 07:00:42;;;;;;;0.60;0.60;;;;;;;19.31;59.20;101339.50;5196635;28;20037;-86
2023/06/07 07:03:33;;;;;;;2.25;2.05;;;;;;;19.42;57.07;101338.91;5197693;28;20025;-85
2023/06/07 07:06:24;;;;;;;11.90;2.08;;;;;;;19.59;55.72;101342.44;5217588;28;20094;-85
2023/06/07 07:09:15;;;;;;;2.03;1.85;;;;;;;19.64;56.15;101345.69;5195358;28;20037;-85
2023/06/07 07:12:07;;;;;;;4.10;0.93;;;;;;;19.49;57.25;101355.41;5194469;28;20025;-85
2023/06/07 07:14:57;;;;;;;0.73;0.73;;;;;;;19.53;56.51;101364.09;5220182;28;20044;-85
2023/06/07 07:17:49;;;;;;;0.85;0.85;;;;;;;19.66;56.50;101358.00;5212895;28;20030;-83
2023/06/07 07:20:40;;;;;;;1.25;1.17;;;;;;;19.47;59.10;101349.31;5229459;28;20037;-83
2023/06/07 07:23:31;;;;;;;0.85;0.85;;;;;;;19.63;56.35;101351.97;5219427;28;20029;-85
2023/06/07 07:26:22;;;;;;;1.13;0.82;;;;;;;19.80;56.64;101356.38;5213602;28;20043;-84
2023/06/07 07:29:12;;;;;;;1.25;1.17;;;;;;;19.81;55.81;101353.59;5193576;28;20029;-83
2023/06/07 07:32:04;;;;;;;1.13;1.02;;;;;;;19.82;55.78;101362.47;5208321;28;20033;-83
2023/06/07 07:34:55;;;;;;;2.85;1.45;;;;;;;19.75;56.66;101359.28;5225044;28;20033;-83
2023/06/07 07:37:46;;;;;;;0.90;0.90;;;;;;;19.80;57.46;101361.69;5228106;28;20250;-85
2023/06/07 07:40:37;;;;;;;1.45;1.35;;;;;;;19.93;55.55;101373.41;5221461;28;20032;-84
2023/06/07 07:43:29;;;;;;;1.75;1.65;;;;;;;19.88;56.75;101374.59;5206919;28;20104;-84
2023/06/07 07:46:19;;;;;;;0.70;0.70;;;;;;;19.82;56.75;101370.47;5229223;28;20040;-83
2023/06/07 07:49:10;;;;;;;0.73;0.73;;;;;;;19.60;59.43;101363.66;5185686;28;20029;-84
2023/06/07 07:52:01;;;;;;;0.50;0.50;;;;;;;19.65;58.21;101368.72;5209297;28;20460;-84
2023/06/07 07:54:51;;;;;;;0.70;0.70;;;;;;;19.76;58.19;101376.09;5187075;28;20025;-83
2023/06/07 07:57:42;;;;;;;0.80;0.80;;;;;;;19.55;58.60;101378.13;5213577;28;20538;-83
2023/06/07 08:00:34;;;;;;;0.98;0.98;;;;;;;19.70;58.17;101374.66;5194204;28;20033;-83
2023/06/07 08:03:25;;;;;;;1.00;0.90;;;;;;;19.71;58.09;101379.03;5193560;28;20037;-83
2023/06/07 08:06:16;;;;;;;0.93;0.88;;;;;;;19.66;59.08;101373.09;5213766;28;20096;-83
2023/06/07 08:09:07;;;;;;;0.95;0.93;;;;;;;19.32;60.75;101375.81;5199945;28;20049;-83
2023/06/07 08:12:00;;;;;;;1.63;1.23;;;;;;;19.25;60.38;101377.09;5201469;28;20025;-85
2023/06/07 08:14:51;;;;;;;1.13;0.75;;;;;;;19.43;60.23;101385.88;5196495;28;20033;-83
2023/06/07 08:17:42;;;;;;;0.82;0.82;;;;;;;19.56;58.22;101379.88;5201097;28;20100;-84
2023/06/07 08:20:32;;;;;;;0.77;0.73;;;;;;;19.38;59.85;101379.06;5205347;28;20040;-84
2023/06/07 08:23:23;;;;;;;0.40;0.40;;;;;;;19.13;60.17;101373.25;5197060;28;20157;-83
2023/06/07 08:26:17;;;;;;;1.00;0.90;;;;;;;19.48;59.00;101373.16;5202590;28;20049;-83
2023/06/07 08:29:07;;;;;;;;;;;;;;;19.66;57.69;101370.44;5188451;28;20029;-83
2023/06/07 08:31:58;;;;;;;0.50;0.50;;;;;;;19.38;58.70;101374.59;5189064;28;19916;-83
2023/06/07 08:34:49;;;;;;;1.17;1.17;;;;;;;19.41;59.14;101382.41;5184875;28;20029;-83
2023/06/07 08:37:41;;;;;;;1.05;0.93;;;;;;;19.53;58.05;101388.03;5191266;28;20021;-83
2023/06/07 08:40:33;;;;;;;0.80;0.80;;;;;;;19.41;58.99;101393.06;5180238;28;20041;-83
2023/06/07 08:43:25;;;;;;;5.00;1.58;;;;;;;19.39;58.44;101394.09;5202518;28;20041;-83
2023/06/07 08:46:17;;;;;;;1.13;1.05;;;;;;;19.28;58.63;101384.03;5203565;28;20044;-84
2023/06/07 08:49:10;;;;;;;0.88;0.88;;;;;;;19.32;58.55;101382.91;5212472;28;20142;-84
2023/06/07 08:52:08;;;;;;;5.93;1.58;;;;;;;19.24;59.47;101379.81;5208542;28;20056;-83
2023/06/07 08:55:03;;;;;;;1.50;1.38;;;;;;;19.34;58.62;101386.34;5213241;28;20055;-82
2023/06/07 08:57:55;;;;;;;0.73;0.73;;;;;;;19.40;58.36;101391.34;5224012;28;20094;-84
2023/06/07 09:00:47;;;;;;;1.55;1.38;;;;;;;19.16;59.04;101386.41;5187051;28;20033;-83
2023/06/07 09:03:38;;;;;;;1.48;1.38;;;;;;;19.45;58.16;101388.44;5181205;28;20541;-83
2023/06/07 09:06:28;;;;;;;0.95;0.82;;;;;;;19.16;59.45;101383.72;5198315;28;20043;-83
2023/06/07 09:09:20;;;;;;;0.60;0.60;;;;;;;19.41;57.48;101387.75;5197501;28;20017;-83
2023/06/07 09:12:10;;;;;;;0.52;0.52;;;;;;;19.26;58.40;101381.44;5213791;28;20025;-83
2023/06/07 09:15:02;;;;;;;0.63;0.63;;;;;;;19.49;57.28;101379.38;5225941;28;20056;-83
2023/06/07 09:18:02;;;;;;;1.60;1.50;;;;;;;19.56;57.20;101379.88;5198414;28;20029;-83
2023/06/07 09:20:52;;;;;;;1.83;1.30;;;;;;;19.68;57.09;101379.22;5191118;28;20085;-83
2023/06/07 09:23:43;;;;;;;1.42;1.33;;;;;;;19.77;56.71;101372.50;5210765;28;20052;-83
2023/06/07 09:26:38;;;;;;;0.90;0.90;;;;;;;19.75;57.20;101379.75;5193598;28;20029;-83
2023/06/07 09:29:37;;;;;;;0.95;0.95;;;;;;;19.85;56.07;101375.63;5194610;28;20051;-84
2023/06/07 09:32:28;;;;;;;0.40;0.40;;;;;;;19.71;56.97;101383.50;5209759;28;20029;-83
2023/06/07 09:35:19;;;;;;;1.05;0.88;;;;;;;19.88;56.10;101374.59;5183800;28;20048;-83
2023/06/07 09:38:25;;;;;;;1.75;1.40;;;;;;;19.74;57.47;101378.00;5183437;28;20091;-83
2023/06/07 09:41:16;;;;;;;1.83;1.45;;;;;;;19.48;59.15;101382.97;5175193;28;20037;-83
2023/06/07 09:44:07;;;;;;;1.50;1.35;;;;;;;19.64;58.33;101378.53;5208660;28;20039;-83
2023/06/07 09:46:58;;;;;;;1.10;1.00;;;;;;;19.74;57.89;101383.34;5196677;28;20049;-83
2023/06/07 09:49:54;;;;;;;0.95;0.95;;;;;;;19.74;57.55;101391.31;5195965;28;20033;-83
2023/06/07 09:52:55;;;;;;;1.58;1.48;;;;;;;19.67;58.08;101396.13;5178819;28;20037;-83
2023/06/07 09:55:45;;;;;;;0.60;0.60;;;;;;;19.70;57.65;101390.63;5199415;28;20037;-84
2023/06/07 09:58:36;;;;;;;1.33;1.25;;;;;;;19.46;59.29;101390.16;5182326;28;20745;-84
2023/06/07 10:01:33;;;;;;;2.03;1.38;;;;;;;19.68;58.14;101389.84;5180778;28;20048;-83
2023/06/07 10:04:24;;;;;;;12.20;2.03;;;;;;;19.32;60.08;101394.44;5189946;28;20041;-84
2023/06/07 10:07:16;;;;;;;8.00;0.98;;;;;;;19.25;59.64;101397.50;5181988;28;20081;-84
2023/06/07 10:10:09;;;;;;;11.70;2.10;;;;;;;19.37;58.39;101399.50;5208762;28;20116;-83
2023/06/07 10:13:07;;;;;;;1.63;1.52;;;;;;;19.41;59.21;101387.75;5184319;28;20040;-83
2023/06/07 10:15:57;;;;;;;0.75;0.75;;;;;;;19.25;59.59;101392.16;5200599;28;20035;-83
2023/06/07 10:18:53;;;;;;;2.10;1.45;;;;;;;19.13;59.72;101383.88;5209090;28;20021;-84
2023/06/07 10:21:47;;;;;;;3.40;1.75;;;;;;;19.01;60.22;101389.88;5195441;28;20038;-83
2023/06/07 10:25:00;;;;;;;2.05;1.92;;;;;;;18.81;61.84;101381.06;5172159;28;20296;-84
2023/06/07 10:28:40;;;;;;;1.02;1.02;;;;;;;19.06;59.73;101379.84;5200758;28;20140;-83
2023/06/07 10:31:36;;;;;;;1.33;1.23;;;;;;;19.09;59.76;101379.69;5207312;28;20083;-84
2023/06/07 10:34:28;;;;;;;0.90;0.90;;;;;;;19.15;59.73;101387.31;5186386;28;20037;-83
2023/06/07 10:37:20;;;;;;;1.35;1.25;;;;;;;18.61;62.91;101376.78;5197990;28;20022;-83
2023/06/07 10:40:12;;;;;;;1.85;1.75;;;;;;;18.99;59.76;101376.66;5181140;28;20061;-84
2023/06/07 10:43:04;;;;;;;2.17;2.05;;;;;;;18.64;62.09;101383.72;5201253;28;20033;-84
2023/06/07 10:46:23;;;;;;;1.17;1.08;;;;;;;18.83;61.40;101381.84;5186162;28;20029;-84
2023/06/07 10:49:34;;;;;;;1.73;1.45;;;;;;;18.84;60.22;101378.25;5184614;28;20447;-84
2023/06/07 10:52:29;;;;;;;7.22;2.10;;;;;;;18.24;64.93;101371.50;5206501;28;20652;-84
2023/06/07 10:55:26;;;;;;;3.13;1.48;;;;;;;18.62;62.07;101377.66;5206182;28;20048;-84
2023/06/07 10:58:29;;;;;;;3.55;1.50;;;;;;;18.82;61.05;101384.59;5191363;28;20121;-84
2023/06/07 11:01:25;;;;;;;4.35;1.60;;;;;;;18.64;62.46;101375.75;5179735;28;20096;-86
2023/06/07 11:04:33;;;;;;;1.40;1.30;;;;;;;18.71;62.26;101377.19;5187893;28;20092;-83
2023/06/07 11:07:31;;;;;;;1.80;1.05;;;;;;;18.48;63.60;101381.00;5189202;28;20377;-84
2023/06/07 11:10:22;;;;;;;0.75;0.75;;;;;;;18.60;64.08;101376.84;5215833;28;20361;-84
2023/06/07 11:13:12;;;;;;;4.32;2.58;;;;;;;18.69;62.46;101371.94;5210594;28;20399;-84
2023/06/07 11:16:23;;;;;;;3.22;1.33;;;;;;;18.77;62.79;101371.56;5191823;28;20033;-84
2023/06/07 11:19:16;;;;;;;0.93;0.93;;;;;;;18.82;63.60;101374.81;5202622;28;20279;-84
2023/06/07 11:22:15;;;;;;;;;;;;;;;18.77;64.16;101368.00;5216126;28;20051;-87
2023/06/07 11:25:15;;;;;;;5.63;3.20;;;;;;;18.68;64.47;101366.69;5185102;28;19996;-82
2023/06/07 11:28:10;;;;;;;2.55;2.45;;;;;;;18.80;64.21;101365.22;5194123;28;20499;-84
2023/06/07 11:31:02;;;;;;;4.68;2.90;;;;;;;18.88;63.17;101366.53;5215885;28;20558;-83
2023/06/07 11:33:53;;;;;;;4.28;2.40;;;;;;;19.10;63.10;101360.13;5219906;28;20025;-86
2023/06/07 11:36:44;;;;;;;2.22;2.08;;;;;;;19.11;63.86;101353.00;5208426;28;20040;-84
2023/06/07 11:39:35;;;;;;;2.28;2.08;;;;;;;19.17;64.28;101358.84;5205954;28;20033;-85
2023/06/07 11:42:26;;;;;;;10.55;2.63;;;;;;;19.19;64.67;101356.09;5203313;28;20032;-86
2023/06/07 11:45:17;;;;;;;2.53;1.77;;;;;;;19.44;62.29;101346.81;5197538;28;20511;-85
2023/06/07 11:48:08;;;;;;;3.78;1.88;;;;;;;19.34;64.12;101354.44;5195668;28;20120;-83
2023/06/07 11:51:00;;;;;;;6.40;1.83;;;;;;;19.25;64.89;101350.47;5188195;28;20033;-83
2023/06/07 11:53:58;;;;;;;2.42;2.03;;;;;;;19.58;63.08;101348.72;5186445;28;20393;-85
2023/06/07 11:56:48;;;;;;;4.20;3.63;;;;;;;19.72;63.09;101334.63;5192665;28;20029;-87
2023/06/07 11:59:41;;;;;;;1.95;1.73;;;;;;;19.81;62.96;101332.31;5186759;28;20081;-83
2023/06/07 12:02:39;;;;;;;2.83;2.10;;;;;;;19.93;62.23;101330.78;5186746;28;20043;-85
2023/06/07 12:05:31;;;;;;;1.50;1.40;;;;;;;20.16;61.67;101325.09;5182881;28;20519;-84
2023/06/07 12:08:29;;;;;;;2.92;2.28;;;;;;;20.18;61.15;101312.53;5197370;28;20037;-83
2023/06/07 12:11:23;;;;;;;2.40;2.08;;;;;;;20.24;60.90;101310.38;5185121;28;20831;-82
2023/06/07 12:14:31;;;;;;;1.27;1.17;;;;;;;20.40;61.55;101313.00;5185106;28;20100;-84
2023/06/07 12:17:22;;;;;;;2.05;0.88;;;;;;;20.64;60.47;101315.13;5212513;28;20024;-83
2023/06/07 12:20:15;;;;;;;1.60;1.50;;;;;;;20.72;60.49;101304.88;5211694;28;20755;-84
2023/06/07 12:23:06;;;;;;;;;;;;;;;20.48;60.60;101306.34;5222204;28;20033;-82
2023/06/07 12:26:10;;;;;;;1.42;1.38;;;;;;;20.70;60.80;101304.09;5231564;28;19948;-83
2023/06/07 12:29:02;;;;;;;2.05;1.90;;;;;;;20.80;60.36;101316.91;5183184;28;20960;-83
2023/06/07 12:31:55;;;;;;;2.38;2.13;;;;;;;20.85;59.83;101301.50;5200562;28;20470;-83
2023/06/07 12:34:46;;;;;;;;;;;;;;;20.95;61.07;101310.63;5202646;28;20385;-83
2023/06/07 12:37:37;;;;;;;1.65;1.55;;;;;;;21.07;60.87;101307.22;5194863;28;19916;-83
2023/06/07 12:40:28;;;;;;;2.33;1.98;;;;;;;20.95;60.18;101305.28;5186136;28;20064;-83
2023/06/07 12:43:19;;;;;;;3.13;2.35;;;;;;;21.09;59.63;101306.25;5186416;28;20055;-83
2023/06/07 12:46:09;;;;;;;2.17;1.85;;;;;;;21.01;59.77;101304.94;5212021;28;20106;-83
2023/06/07 12:49:01;;;;;;;2.00;1.90;;;;;;;21.29;59.04;101305.00;5199477;28;20025;-83
2023/06/07 12:51:53;;;;;;;2.40;1.27;;;;;;;21.28;59.70;101309.47;5183739;28;20032;-83
2023/06/07 12:54:44;;;;;;;2.03;1.65;;;;;;;21.21;59.58;101292.13;5193707;28;20032;-83
2023/06/07 12:57:37;;;;;;;0.98;0.98;;;;;;;21.43;59.16;101288.97;5197939;28;20111;-83
2023/06/07 13:00:28;;;;;;;2.63;2.42;;;;;;;21.45;59.21;101296.88;5197585;28;20037;-83
2023/06/07 13:03:20;;;;;;;2.80;1.55;;;;;;;21.81;58.42;101306.16;5191664;28;20071;-84
2023/06/07 13:06:11;;;;;;;0.88;0.88;;;;;;;22.00;57.34;101298.66;5206864;28;20053;-83
2023/06/07 13:09:08;;;;;;;1.95;1.85;;;;;;;21.79;58.12;101294.72;5211807;28;20728;-84
2023/06/07 13:12:02;;;;;;;3.00;2.78;;;;;;;21.90;57.35;101299.38;5185546;28;20627;-84
2023/06/07 13:14:53;;;;;;;1.80;1.70;;;;;;;21.91;57.31;101295.72;5187681;28;20033;-84
2023/06/07 13:17:44;;;;;;;3.40;1.65;;;;;;;22.06;56.84;101291.19;5213817;28;20142;-83
2023/06/07 13:20:35;;;;;;;2.17;2.03;;;;;;;22.00;56.60;101285.31;5199543;28;20567;-84
2023/06/07 13:23:26;;;;;;;2.25;1.45;;;;;;;22.01;56.97;101292.38;5197635;28;20045;-84
2023/06/07 13:26:17;;;;;;;1.92;1.50;;;;;;;22.27;56.17;101281.72;5201320;28;20033;-84